createdAt,value
2023-08-17T00:29:40.870Z,4.80
2023-08-17T00:32:09.722Z,3.40
2023-08-17T00:34:40.027Z,4.50
2023-08-17T00:37:48.356Z,4.00
2023-08-17T00:40:26.061Z,3.80
2023-08-17T00:42:58.585Z,3.30
2023-08-17T00:45:56.797Z,4.60
2023-08-17T00:48:29.593Z,4.30
2023-08-17T00:51:18.863Z,3.60
2023-08-17T00:54:01.787Z,3.70
2023-08-17T00:56:33.246Z,4.50
2023-08-17T00:59:06.432Z,4.00
2023-08-17T01:01:43.692Z,3.60
2023-08-17T01:04:37.295Z,3.50
2023-08-17T01:07:09.784Z,4.40
2023-08-17T01:09:41.007Z,4.10
2023-08-17T01:12:56.166Z,4.60
2023-08-17T01:15:59.026Z,4.00
2023-08-17T01:18:39.168Z,3.90
2023-08-17T01:21:12.119Z,3.60
2023-08-17T01:23:51.390Z,4.20
2023-08-17T01:26:20.310Z,4.60
2023-08-17T01:28:53.168Z,3.80
2023-08-17T01:31:25.635Z,4.00
2023-08-17T01:33:57.794Z,4.30
2023-08-17T01:36:35.993Z,4.10
2023-08-17T01:39:09.061Z,4.30
2023-08-17T01:41:37.936Z,4.00
2023-08-17T01:44:09.262Z,4.10
2023-08-17T01:46:47.405Z,4.60
2023-08-17T01:49:21.024Z,3.90
2023-08-17T01:51:49.770Z,3.60
2023-08-17T01:54:25.386Z,4.00
2023-08-17T01:56:59.875Z,3.50
2023-08-17T01:59:35.562Z,3.80
2023-08-17T02:02:10.060Z,4.20
2023-08-17T02:04:42.489Z,3.80
2023-08-17T02:07:14.783Z,4.50
2023-08-17T02:09:49.690Z,3.70
2023-08-17T02:12:20.328Z,3.60
2023-08-17T02:14:49.284Z,3.70
2023-08-17T02:17:19.742Z,4.10
2023-08-17T02:22:29.815Z,3.60
2023-08-17T02:25:01.122Z,3.40
2023-08-17T02:27:32.729Z,3.50
2023-08-17T02:32:45.629Z,3.40
2023-08-17T02:35:17.006Z,3.70
2023-08-17T02:37:46.874Z,3.30
2023-08-17T02:40:14.334Z,3.60
2023-08-17T02:42:45.923Z,4.10
2023-08-17T02:45:15.142Z,3.50
2023-08-17T02:47:43.679Z,3.90
2023-08-17T02:50:18.092Z,3.70
2023-08-17T02:52:48.822Z,4.00
2023-08-17T02:55:18.786Z,4.20
2023-08-17T02:57:48.863Z,3.60
2023-08-17T03:00:19.962Z,3.80
2023-08-17T03:02:49.355Z,3.70
2023-08-17T03:05:18.102Z,3.40
2023-08-17T03:07:53.427Z,3.60
2023-08-17T03:10:24.809Z,3.40
2023-08-17T03:12:55.057Z,3.50
2023-08-17T03:15:28.509Z,3.40
2023-08-17T03:18:00.172Z,3.90
2023-08-17T03:20:30.566Z,3.40
2023-08-17T03:23:10.934Z,3.60
2023-08-17T03:25:41.280Z,3.40
2023-08-17T03:28:11.411Z,3.70
2023-08-17T03:30:41.607Z,3.10
2023-08-17T03:33:10.337Z,3.20
2023-08-17T03:35:44.045Z,2.90
2023-08-17T03:38:15.506Z,3.50
2023-08-17T03:40:45.188Z,3.10
2023-08-17T03:43:18.818Z,3.30
2023-08-17T03:45:49.432Z,3.20
2023-08-17T03:48:17.629Z,3.60
2023-08-17T03:51:15.405Z,3.20
2023-08-17T03:53:44.034Z,3.30
2023-08-17T03:56:12.714Z,4.50
2023-08-17T03:58:40.693Z,4.10
2023-08-17T04:01:13.218Z,3.70
2023-08-17T04:03:43.764Z,3.90
2023-08-17T04:06:14.689Z,3.50
2023-08-17T04:08:44.578Z,3.10
2023-08-17T04:11:15.764Z,3.10
2023-08-17T04:13:46.297Z,3.60
2023-08-17T04:16:18.663Z,3.20
2023-08-17T04:21:22.257Z,3.10
2023-08-17T04:23:55.888Z,3.20
2023-08-17T04:26:58.135Z,2.70
2023-08-17T04:29:33.065Z,3.00
2023-08-17T04:32:06.495Z,3.10
2023-08-17T04:35:06.591Z,3.00
2023-08-17T04:41:07.077Z,3.40
2023-08-17T04:43:42.500Z,3.50
2023-08-17T04:46:38.208Z,3.50
2023-08-17T04:49:10.769Z,3.30
2023-08-17T04:51:47.361Z,3.40
2023-08-17T04:54:17.154Z,3.50
2023-08-17T04:56:48.331Z,3.60
2023-08-17T04:59:16.310Z,3.60
2023-08-17T05:02:10.390Z,3.00
2023-08-17T05:04:40.464Z,3.70
2023-08-17T05:07:14.817Z,3.60
2023-08-17T05:09:45.686Z,3.40
2023-08-17T05:12:22.474Z,3.30
2023-08-17T05:14:58.920Z,3.70
2023-08-17T05:17:37.485Z,3.70
2023-08-17T05:20:10.005Z,4.00
2023-08-17T05:22:46.384Z,3.50
2023-08-17T05:25:19.900Z,3.40
2023-08-17T05:27:54.869Z,3.10
2023-08-17T05:40:16.264Z,3.50
2023-08-17T05:42:48.642Z,4.50
2023-08-17T05:45:44.418Z,3.80
2023-08-17T05:49:07.150Z,3.80
2023-08-17T05:51:40.208Z,4.00
2023-08-17T05:54:19.738Z,2.90
2023-08-17T05:57:17.290Z,3.70
2023-08-17T06:00:02.915Z,3.70
2023-08-17T06:03:11.067Z,3.90
2023-08-17T06:05:50.431Z,3.70
2023-08-17T06:08:28.850Z,4.10
2023-08-17T06:11:03.807Z,3.70
2023-08-17T06:14:03.061Z,4.00
2023-08-17T06:16:31.860Z,3.60
2023-08-17T06:19:04.861Z,3.50
2023-08-17T06:21:52.437Z,3.60
2023-08-17T06:24:43.964Z,3.60
2023-08-17T06:27:21.466Z,3.80
2023-08-17T06:30:05.032Z,3.50
2023-08-17T06:32:38.568Z,3.50
2023-08-17T06:35:08.375Z,3.70
2023-08-17T06:37:42.814Z,3.50
2023-08-17T06:40:12.226Z,3.30
2023-08-17T06:42:47.207Z,3.40
2023-08-17T06:45:24.160Z,3.10
2023-08-17T06:47:52.781Z,3.30
2023-08-17T06:50:24.686Z,3.20
2023-08-17T06:52:55.405Z,3.50
2023-08-17T06:55:53.376Z,3.30
2023-08-17T06:58:30.192Z,2.90
2023-08-17T07:01:08.314Z,3.80
2023-08-17T07:03:46.423Z,3.50
2023-08-17T07:06:28.521Z,4.00
2023-08-17T07:09:07.300Z,3.90
2023-08-17T07:11:39.000Z,3.60
2023-08-17T07:14:11.123Z,3.60
2023-08-17T07:16:40.632Z,3.10
2023-08-17T07:20:03.912Z,3.70
2023-08-17T07:22:29.398Z,3.60
2023-08-17T07:25:03.480Z,3.20
2023-08-17T07:28:06.111Z,3.50
2023-08-17T07:33:39.778Z,2.50
2023-08-17T07:36:09.176Z,3.10
2023-08-17T07:38:44.708Z,3.50
2023-08-17T07:41:14.780Z,3.10
2023-08-17T07:43:55.211Z,3.10
2023-08-17T07:46:26.425Z,3.70
2023-08-17T07:48:59.877Z,2.70
2023-08-17T07:52:01.189Z,3.60
2023-08-17T07:54:35.295Z,3.20
2023-08-17T07:57:12.813Z,2.80
2023-08-17T07:59:51.646Z,3.50
2023-08-17T08:03:26.255Z,2.90
2023-08-17T08:06:08.563Z,3.00
2023-08-17T08:08:42.446Z,3.10
2023-08-17T08:11:20.184Z,3.90
2023-08-17T08:14:00.365Z,2.90
2023-08-17T08:16:36.955Z,2.90
2023-08-17T08:19:08.349Z,3.00
2023-08-17T08:21:46.710Z,2.60
2023-08-17T08:28:07.215Z,2.50
2023-08-17T08:31:10.756Z,2.60
2023-08-17T08:34:19.832Z,2.60
2023-08-17T08:40:16.469Z,3.00
2023-08-17T08:43:17.088Z,2.50
2023-08-17T08:46:22.591Z,2.40
2023-08-17T08:49:04.480Z,2.80
2023-08-17T08:55:26.509Z,2.30
2023-08-17T08:58:00.418Z,2.00
2023-08-17T09:01:34.553Z,1.90
2023-08-17T09:04:28.626Z,2.10
2023-08-17T09:07:23.121Z,1.60
2023-08-17T09:09:58.279Z,2.00
2023-08-17T09:12:49.124Z,2.20
2023-08-17T09:15:39.542Z,1.90
2023-08-17T09:18:21.029Z,2.00
2023-08-17T09:21:01.897Z,1.60
2023-08-17T09:24:05.197Z,2.30
2023-08-17T09:26:48.135Z,1.90
2023-08-17T09:30:09.410Z,1.90
2023-08-17T09:34:07.843Z,2.00
2023-08-17T09:36:57.168Z,2.30
2023-08-17T09:39:46.697Z,1.80
2023-08-17T09:43:19.503Z,2.00
2023-08-17T09:45:53.578Z,2.00
2023-08-17T09:48:48.852Z,2.10
2023-08-17T09:51:43.112Z,2.00
2023-08-17T09:54:40.513Z,2.10
2023-08-17T09:57:27.570Z,2.10
2023-08-17T10:13:47.135Z,2.10
2023-08-17T10:16:46.814Z,1.70
2023-08-17T10:20:10.537Z,2.20
2023-08-17T10:23:42.720Z,1.60
2023-08-17T10:30:00.264Z,1.70
2023-08-17T10:36:24.410Z,2.00
2023-08-17T10:39:40.526Z,1.90
2023-08-17T10:42:22.031Z,3.00
2023-08-17T10:45:08.709Z,1.70
2023-08-17T10:48:28.777Z,2.10
2023-08-17T10:51:33.883Z,2.00
2023-08-17T10:54:10.208Z,2.70
2023-08-17T10:57:37.037Z,2.00
2023-08-17T11:01:10.157Z,3.10
2023-08-17T11:03:51.257Z,1.90
2023-08-17T11:06:25.804Z,1.60
2023-08-17T11:09:06.485Z,2.00
2023-08-17T11:11:40.200Z,2.00
2023-08-17T11:14:31.485Z,1.70
2023-08-17T11:17:08.214Z,1.80
2023-08-17T11:19:46.454Z,1.70
2023-08-17T11:22:26.969Z,1.80
2023-08-17T11:25:00.853Z,1.50
2023-08-17T11:27:38.795Z,1.70
2023-08-17T11:30:22.979Z,2.10
2023-08-17T11:33:00.809Z,1.40
2023-08-17T11:35:34.482Z,2.20
2023-08-17T11:38:17.317Z,1.70
2023-08-17T11:44:05.370Z,1.50
2023-08-17T11:46:43.031Z,1.60
2023-08-17T11:49:19.101Z,1.60
2023-08-17T11:51:56.376Z,1.30
2023-08-17T11:54:34.728Z,2.00
2023-08-17T11:57:18.279Z,2.00
2023-08-17T11:59:59.614Z,2.00
2023-08-17T12:03:01.364Z,1.70
2023-08-17T12:05:41.064Z,1.70
2023-08-17T12:08:16.421Z,1.90
2023-08-17T12:10:46.591Z,1.80
2023-08-17T12:13:21.686Z,1.50
2023-08-17T12:15:52.655Z,1.70
2023-08-17T12:18:51.229Z,2.10
2023-08-17T12:21:25.069Z,2.20
2023-08-17T12:24:24.616Z,1.80
2023-08-17T12:26:55.814Z,1.70
2023-08-17T12:29:56.134Z,1.80
2023-08-17T12:32:32.563Z,1.50
2023-08-17T12:39:03.832Z,2.30
2023-08-17T12:42:12.356Z,1.70
2023-08-17T12:46:58.294Z,2.40
2023-08-17T12:49:39.447Z,1.80
2023-08-17T12:52:18.224Z,2.40
2023-08-17T12:54:57.888Z,2.30
2023-08-17T12:57:33.913Z,1.80
2023-08-17T13:00:11.489Z,1.50
2023-08-17T13:02:42.348Z,1.90
2023-08-17T13:05:14.214Z,2.10
2023-08-17T13:10:26.692Z,1.90
2023-08-17T13:13:02.691Z,2.00
2023-08-17T13:16:02.335Z,1.50
2023-08-17T13:18:34.183Z,1.90
2023-08-17T13:21:20.400Z,2.10
2023-08-17T13:24:11.491Z,1.90
2023-08-17T13:26:54.062Z,1.80
2023-08-17T13:29:30.239Z,1.90
2023-08-17T13:32:33.931Z,1.70
2023-08-17T13:35:12.798Z,1.70
2023-08-17T13:42:32.726Z,1.50
2023-08-17T13:45:35.321Z,1.70
2023-08-17T13:52:44.049Z,1.50
2023-08-17T13:55:18.502Z,1.60
2023-08-17T13:58:36.164Z,1.80
2023-08-17T14:01:15.400Z,2.20
2023-08-17T14:03:43.540Z,2.00
2023-08-17T14:07:35.448Z,1.60
2023-08-17T14:10:28.919Z,1.70
2023-08-17T14:13:55.853Z,1.60
2023-08-17T14:16:28.197Z,1.70
2023-08-17T14:19:37.820Z,2.20
2023-08-17T14:22:25.797Z,2.10
2023-08-17T14:25:35.011Z,1.70
2023-08-17T14:28:15.351Z,1.90
2023-08-17T14:30:58.110Z,2.20
2023-08-17T14:33:51.403Z,2.20
2023-08-17T14:36:52.637Z,1.90
2023-08-17T14:39:28.957Z,1.80
2023-08-17T14:42:05.458Z,2.00
2023-08-17T14:44:39.530Z,1.90
2023-08-17T14:47:21.901Z,1.80
2023-08-17T14:49:56.599Z,1.60
2023-08-17T14:52:34.374Z,2.30
2023-08-17T14:55:14.355Z,2.10
2023-08-17T14:57:46.866Z,2.30
2023-08-17T15:00:34.028Z,2.30
2023-08-17T15:03:07.747Z,2.40
2023-08-17T15:05:39.661Z,2.40
2023-08-17T15:08:17.203Z,2.30
2023-08-17T15:11:12.804Z,1.60
2023-08-17T15:13:43.645Z,1.50
2023-08-17T15:16:18.288Z,2.10
2023-08-17T15:18:49.346Z,2.20
2023-08-17T15:21:21.386Z,1.70
2023-08-17T15:24:03.328Z,1.80
2023-08-17T15:26:38.177Z,2.10
2023-08-17T15:29:10.655Z,2.00
2023-08-17T15:31:46.415Z,1.80
2023-08-17T15:34:21.920Z,1.90
2023-08-17T15:36:57.405Z,1.80
2023-08-17T15:43:10.309Z,2.00
2023-08-17T15:45:47.578Z,1.50
2023-08-17T15:48:21.841Z,2.10
2023-08-17T15:50:58.453Z,1.80
2023-08-17T15:53:31.956Z,2.20
2023-08-17T15:56:10.432Z,1.50
2023-08-17T15:58:43.715Z,2.00
2023-08-17T16:01:22.412Z,1.80
2023-08-17T16:03:51.475Z,1.60
2023-08-17T16:06:46.680Z,2.20
2023-08-17T16:09:19.007Z,1.70
2023-08-17T16:11:53.220Z,1.80
2023-08-17T16:14:29.712Z,1.40
2023-08-17T16:17:31.824Z,1.80
2023-08-17T16:21:00.288Z,2.00
2023-08-17T16:23:40.327Z,1.80
2023-08-17T16:26:34.299Z,2.20
2023-08-17T16:29:21.017Z,1.70
2023-08-17T16:32:09.082Z,2.10
2023-08-17T16:34:51.736Z,2.10
2023-08-17T16:37:49.582Z,2.10
2023-08-17T16:40:36.971Z,2.00
2023-08-17T16:43:24.607Z,2.00
2023-08-17T16:46:15.864Z,1.80
2023-08-17T16:49:11.048Z,1.70
2023-08-17T16:51:45.360Z,1.60
2023-08-17T16:54:47.243Z,2.20
2023-08-17T16:57:58.937Z,2.10
2023-08-17T17:05:09.529Z,2.00
2023-08-17T17:07:44.876Z,2.20
2023-08-17T17:10:23.572Z,2.20
2023-08-17T17:13:35.943Z,2.10
2023-08-17T17:16:14.967Z,2.50
2023-08-17T17:19:05.951Z,1.90
2023-08-17T17:22:00.744Z,2.70
2023-08-17T17:25:24.275Z,2.10
2023-08-17T17:31:54.586Z,2.00
2023-08-17T17:35:05.051Z,2.30
2023-08-17T17:38:11.139Z,2.30
2023-08-17T17:41:01.634Z,2.30
2023-08-17T17:44:01.532Z,2.40
2023-08-17T17:47:05.833Z,2.40
2023-08-17T17:50:05.857Z,2.20
2023-08-17T17:52:47.520Z,2.70
2023-08-17T18:05:17.525Z,3.00
2023-08-17T18:07:58.055Z,2.70
2023-08-17T18:10:34.144Z,3.40
2023-08-17T18:13:15.207Z,2.70
2023-08-17T18:16:08.002Z,2.20
2023-08-17T18:19:09.254Z,2.60
2023-08-17T18:22:09.253Z,2.60
2023-08-17T18:24:42.835Z,3.00
2023-08-17T18:27:22.729Z,3.40
2023-08-17T18:33:47.704Z,3.10
2023-08-17T18:41:29.281Z,3.20
2023-08-17T18:44:11.502Z,3.00
2023-08-17T18:47:26.198Z,4.70
2023-08-17T18:50:19.017Z,5.10
2023-08-17T18:55:47.982Z,5.70
2023-08-17T18:58:59.961Z,5.60
2023-08-17T19:01:44.540Z,5.90
2023-08-17T19:05:02.360Z,6.40
2023-08-17T19:08:48.845Z,5.40
2023-08-17T19:12:17.936Z,5.60
2023-08-17T19:14:59.554Z,5.40
2023-08-17T19:17:53.748Z,5.40
2023-08-17T19:20:57.825Z,5.10
2023-08-17T19:23:33.833Z,5.20
2023-08-17T19:26:02.174Z,5.00
2023-08-17T19:28:30.865Z,5.00
2023-08-17T19:30:58.190Z,4.30
2023-08-17T19:33:25.392Z,4.40
2023-08-17T19:35:52.634Z,4.40
2023-08-17T19:38:19.572Z,3.80
2023-08-17T19:40:47.465Z,3.70
2023-08-17T19:43:16.421Z,3.60
2023-08-17T19:45:44.458Z,3.80
2023-08-17T19:48:12.770Z,3.90
2023-08-17T19:50:42.461Z,4.20
2023-08-17T19:53:11.585Z,4.00
2023-08-17T19:55:40.146Z,4.00
2023-08-17T19:58:07.416Z,3.80
2023-08-17T20:00:37.218Z,3.50
2023-08-17T20:03:06.492Z,3.60
2023-08-17T20:05:34.039Z,3.40
2023-08-17T20:08:01.731Z,3.60
2023-08-17T20:10:31.737Z,3.20
2023-08-17T20:13:10.645Z,3.80
2023-08-17T20:16:14.297Z,3.40
2023-08-17T20:18:53.996Z,3.80
2023-08-17T20:26:28.190Z,3.30
2023-08-17T20:29:08.589Z,3.40
2023-08-17T20:31:42.880Z,3.70
2023-08-17T20:34:14.333Z,3.40
2023-08-17T20:36:44.985Z,3.90
2023-08-17T20:39:42.849Z,4.40
2023-08-17T20:42:18.353Z,4.00
2023-08-17T20:45:00.495Z,4.00
2023-08-17T20:48:03.202Z,3.60
2023-08-17T20:50:39.355Z,4.50
2023-08-17T20:53:12.861Z,4.10
2023-08-17T20:56:27.692Z,4.50
2023-08-17T20:58:56.909Z,4.10
2023-08-17T21:01:37.313Z,4.00
2023-08-17T21:04:12.000Z,4.10
2023-08-17T21:06:44.600Z,3.60
2023-08-17T21:09:16.806Z,4.20
2023-08-17T21:11:45.228Z,4.20
2023-08-17T21:14:19.441Z,3.40
2023-08-17T21:16:49.558Z,3.90
2023-08-17T21:19:24.416Z,4.60
2023-08-17T21:21:54.352Z,4.00
2023-08-17T21:24:35.198Z,3.90
2023-08-17T21:27:04.216Z,3.10
2023-08-17T21:29:41.622Z,3.80
2023-08-17T21:32:29.866Z,3.50
2023-08-17T21:35:16.067Z,3.70
2023-08-17T21:37:51.702Z,3.60
2023-08-17T21:40:20.977Z,4.00
2023-08-17T21:42:52.558Z,3.90
2023-08-17T21:45:20.104Z,4.00
2023-08-17T21:47:51.387Z,4.00
2023-08-17T21:50:21.327Z,3.10
2023-08-17T21:52:48.449Z,4.30
2023-08-17T21:55:19.006Z,4.20
2023-08-17T21:57:51.338Z,4.00
2023-08-17T22:00:20.605Z,3.20
2023-08-17T22:02:53.120Z,4.10
2023-08-17T22:05:24.471Z,4.30
2023-08-17T22:07:56.735Z,3.70
2023-08-17T22:10:26.368Z,4.20
2023-08-17T22:12:56.512Z,4.40
2023-08-17T22:15:27.671Z,3.90
2023-08-17T22:18:01.632Z,4.40
2023-08-17T22:20:38.838Z,5.00
2023-08-17T22:23:08.083Z,3.80
2023-08-17T22:25:38.400Z,4.50
2023-08-17T22:28:06.894Z,4.80
2023-08-17T22:30:51.844Z,4.20
2023-08-17T22:33:22.687Z,4.40
2023-08-17T22:35:51.144Z,4.50
2023-08-17T22:38:21.148Z,4.00
2023-08-17T22:40:54.937Z,4.00
2023-08-17T22:43:27.842Z,4.10
2023-08-17T22:45:57.158Z,4.10
2023-08-17T22:48:26.296Z,3.90
2023-08-17T22:51:09.211Z,4.10
2023-08-17T22:53:41.735Z,3.60
2023-08-17T22:56:15.841Z,4.40
2023-08-17T22:58:43.676Z,3.60
2023-08-17T23:01:15.955Z,3.40
2023-08-17T23:03:52.019Z,4.20
2023-08-17T23:06:21.330Z,4.00
2023-08-17T23:08:55.094Z,3.80
2023-08-17T23:11:26.523Z,3.90
2023-08-17T23:13:56.941Z,3.70
2023-08-17T23:16:29.296Z,3.60
2023-08-17T23:21:27.142Z,3.60
2023-08-17T23:23:57.030Z,4.00
2023-08-17T23:26:29.257Z,3.60
2023-08-17T23:29:01.131Z,4.20
2023-08-17T23:31:53.411Z,3.70
2023-08-17T23:34:28.759Z,3.80
2023-08-17T23:36:57.343Z,3.80
2023-08-17T23:39:26.006Z,3.90
2023-08-17T23:41:57.056Z,4.10
2023-08-17T23:48:29.719Z,3.70
2023-08-17T23:51:59.436Z,4.10
2023-08-17T23:54:29.629Z,3.60
2023-08-17T23:56:57.929Z,3.30
